Time;durP1;ratioP1;P1;durP2;ratioP2;P2;SDS_P1;SDS_P2;PMS_P1;PMS_P2;Temp;Humidity;BMP_temperature;BMP_pressure;BME280_temperature;BME280_humidity;BME280_pressure;Samples;Min_cycle;Max_cycle;Signal;HPM_P1;HPM_P2
2022/10/23 00:00:38;;;;;;;;;1.25;1.00;;;;;;;;5045343;27;8854;-83
2022/10/23 00:03:07;;;;;;;;;2.50;2.00;;;;;;;;5050527;27;8884;-83
2022/10/23 00:05:39;;;;;;;;;2.00;2.00;;;;;;;;5048767;27;8956;-82
2022/10/23 00:08:06;;;;;;;;;2.00;2.00;;;;;;;;5050454;27;8842;-83
2022/10/23 00:10:34;;;;;;;;;2.00;2.00;;;;;;;;5075316;27;9720;-82
2022/10/23 00:13:02;;;;;;;;;1.25;1.25;;;;;;;;5061608;27;8828;-82
2022/10/23 00:15:29;;;;;;;;;1.50;1.50;;;;;;;;5064140;27;8832;-83
2022/10/23 00:17:57;;;;;;;;;2.00;2.00;;;;;;;;5046513;27;8984;-83
2022/10/23 00:20:26;;;;;;;;;2.50;2.00;;;;;;;;5063938;27;8852;-83
2022/10/23 00:22:54;;;;;;;;;2.00;2.00;;;;;;;;5058608;27;8892;-82
2022/10/23 00:25:22;;;;;;;;;1.75;1.75;;;;;;;;5076334;27;8820;-83
2022/10/23 00:27:50;;;;;;;;;3.00;2.00;;;;;;;;5076985;27;8844;-83
2022/10/23 00:30:18;;;;;;;;;2.00;2.00;;;;;;;;5060230;27;8848;-83
2022/10/23 00:32:46;;;;;;;;;0.75;0.75;;;;;;;;5037654;27;8858;-82
2022/10/23 00:35:15;;;;;;;;;3.50;1.50;;;;;;;;5093945;27;8831;-82
2022/10/23 00:37:45;;;;;;;;;2.00;2.00;;;;;;;;5064839;27;8811;-82
2022/10/23 00:40:13;;;;;;;;;1.00;1.00;;;;;;;;5042304;27;8864;-83
2022/10/23 00:42:40;;;;;;;;;1.00;1.00;;;;;;;;5029776;27;9066;-83
2022/10/23 00:45:30;;;;;;;;;1.75;1.75;;;;;;;;5016108;27;8873;-83
2022/10/23 00:47:58;;;;;;;;;2.25;2.25;;;;;;;;5048569;27;8867;-83
2022/10/23 00:50:27;;;;;;;;;3.00;1.00;;;;;;;;5045320;27;8853;-82
2022/10/23 00:52:57;;;;;;;;;1.00;1.00;;;;;;;;5043686;27;8852;-83
2022/10/23 00:55:26;;;;;;;;;3.75;1.00;;;;;;;;5054730;27;8889;-82
2022/10/23 00:57:54;;;;;;;;;1.25;1.25;;;;;;;;5008782;27;8847;-82
2022/10/23 01:00:23;;;;;;;;;1.00;1.00;;;;;;;;5016038;27;8901;-83
2022/10/23 01:02:52;;;;;;;;;0.25;0.00;;;;;;;;5043981;27;8941;-83
2022/10/23 01:05:24;;;;;;;;;0.75;0.75;;;;;;;;5056766;27;8845;-83
2022/10/23 01:07:57;;;;;;;;;2.00;2.00;;;;;;;;5060343;27;8846;-84
2022/10/23 01:10:32;;;;;;;;;2.25;2.25;;;;;;;;5057551;27;8888;-84
2022/10/23 01:13:06;;;;;;;;;2.25;2.00;;;;;;;;5050344;27;8851;-83
2022/10/23 01:15:39;;;;;;;;;1.75;1.75;;;;;;;;5052347;27;8901;-83
2022/10/23 01:18:11;;;;;;;;;1.50;1.50;;;;;;;;5058827;27;9554;-83
2022/10/23 01:20:44;;;;;;;;;2.75;2.75;;;;;;;;5061447;27;8928;-82
2022/10/23 01:23:33;;;;;;;;;5.00;3.00;;;;;;;;5080328;27;8847;-82
2022/10/23 01:26:26;;;;;;;;;2.25;2.25;;;;;;;;5061698;27;8867;-84
2022/10/23 01:29:03;;;;;;;;;2.00;2.00;;;;;;;;5068966;27;9333;-83
2022/10/23 01:31:35;;;;;;;;;2.00;2.00;;;;;;;;5047839;28;8905;-82
2022/10/23 01:34:08;;;;;;;;;2.00;2.00;;;;;;;;5064038;27;8939;-83
2022/10/23 01:36:39;;;;;;;;;1.25;1.25;;;;;;;;5072612;27;8836;-83
2022/10/23 01:39:09;;;;;;;;;1.75;1.75;;;;;;;;5057093;27;8834;-83
2022/10/23 01:41:42;;;;;;;;;3.00;1.50;;;;;;;;5061973;27;8987;-83
2022/10/23 01:44:14;;;;;;;;;2.00;2.00;;;;;;;;5076368;27;8871;-82
2022/10/23 01:46:43;;;;;;;;;2.00;2.00;;;;;;;;5043302;28;8910;-84
2022/10/23 01:49:13;;;;;;;;;2.00;2.00;;;;;;;;5065427;27;8840;-83
2022/10/23 01:51:44;;;;;;;;;0.50;0.50;;;;;;;;5062157;28;8926;-82
2022/10/23 01:54:14;;;;;;;;;2.50;1.00;;;;;;;;5097511;28;8850;-82
2022/10/23 01:56:45;;;;;;;;;2.00;2.00;;;;;;;;5074657;27;8924;-84
2022/10/23 01:59:17;;;;;;;;;2.00;2.00;;;;;;;;5088366;27;8846;-83
2022/10/23 02:01:48;;;;;;;;;1.50;1.50;;;;;;;;5069339;27;8879;-83
2022/10/23 02:04:19;;;;;;;;;1.75;1.75;;;;;;;;5063688;27;9007;-81
2022/10/23 02:06:47;;;;;;;;;0.00;0.00;;;;;;;;5080809;27;8843;-82
2022/10/23 02:09:15;;;;;;;;;2.00;2.00;;;;;;;;5037227;28;8849;-82
2022/10/23 02:11:51;;;;;;;;;4.50;2.00;;;;;;;;5079081;27;8973;-83
2022/10/23 02:14:28;;;;;;;;;1.00;1.00;;;;;;;;5127689;27;8850;-83
2022/10/23 02:17:00;;;;;;;;;1.25;1.25;;;;;;;;5115117;27;8848;-82
2022/10/23 02:19:33;;;;;;;;;2.75;2.00;;;;;;;;5118346;27;8826;-81
2022/10/23 02:22:06;;;;;;;;;2.50;2.50;;;;;;;;5118919;27;9666;-82
2022/10/23 02:24:39;;;;;;;;;4.50;1.25;;;;;;;;5115071;27;8853;-83
2022/10/23 02:27:15;;;;;;;;;2.50;2.00;;;;;;;;5121674;27;8858;-83
2022/10/23 02:29:46;;;;;;;;;2.25;2.25;;;;;;;;5142774;27;8824;-81
2022/10/23 02:32:15;;;;;;;;;1.00;1.00;;;;;;;;5136115;27;8994;-82
2022/10/23 02:34:43;;;;;;;;;2.00;2.00;;;;;;;;5116438;27;8868;-83
2022/10/23 02:37:10;;;;;;;;;1.00;1.00;;;;;;;;5118004;27;8824;-83
2022/10/23 02:39:38;;;;;;;;;2.00;2.00;;;;;;;;5148824;27;8966;-83
2022/10/23 02:42:11;;;;;;;;;1.25;1.25;;;;;;;;5117498;27;8860;-84
2022/10/23 02:44:47;;;;;;;;;1.00;1.00;;;;;;;;5131298;27;8875;-84
2022/10/23 02:47:27;;;;;;;;;1.00;1.00;;;;;;;;5130907;27;8880;-84
2022/10/23 02:49:59;;;;;;;;;1.00;1.00;;;;;;;;5130875;27;8836;-83
2022/10/23 02:52:35;;;;;;;;;1.75;1.75;;;;;;;;5099918;27;8950;-80
2022/10/23 02:55:13;;;;;;;;;1.75;1.75;;;;;;;;5132316;27;8874;-82
2022/10/23 02:57:45;;;;;;;;;2.00;2.00;;;;;;;;5136318;27;8982;-83
2022/10/23 03:00:19;;;;;;;;;1.25;1.25;;;;;;;;5128387;27;8850;-83
2022/10/23 03:02:54;;;;;;;;;1.50;1.50;;;;;;;;5138906;27;8844;-82
2022/10/23 03:05:25;;;;;;;;;1.00;1.00;;;;;;;;5126318;27;8850;-82
2022/10/23 03:07:53;;;;;;;;;1.00;1.00;;;;;;;;5126160;27;8852;-82
2022/10/23 03:10:20;;;;;;;;;1.00;1.00;;;;;;;;5104559;27;8836;-84
2022/10/23 03:12:48;;;;;;;;;1.50;1.50;;;;;;;;5066147;27;8846;-84
2022/10/23 03:15:18;;;;;;;;;2.00;2.00;;;;;;;;5056382;27;8825;-85
2022/10/23 03:17:46;;;;;;;;;1.00;1.00;;;;;;;;5061736;27;8959;-84
2022/10/23 03:20:13;;;;;;;;;2.00;2.00;;;;;;;;5054387;27;8906;-84
2022/10/23 03:22:41;;;;;;;;;1.25;1.25;;;;;;;;5047299;27;8852;-85
2022/10/23 03:25:09;;;;;;;;;2.25;2.25;;;;;;;;5061661;27;8832;-83
2022/10/23 03:27:37;;;;;;;;;2.25;2.00;;;;;;;;5059948;27;8984;-84
2022/10/23 03:30:06;;;;;;;;;1.00;1.00;;;;;;;;5068441;27;8857;-83
2022/10/23 03:32:35;;;;;;;;;2.00;2.00;;;;;;;;5067653;27;8856;-85
2022/10/23 03:35:03;;;;;;;;;1.50;1.50;;;;;;;;5049277;27;8866;-84
2022/10/23 03:37:30;;;;;;;;;2.00;2.00;;;;;;;;5054971;27;8840;-84
2022/10/23 03:39:58;;;;;;;;;1.00;1.00;;;;;;;;5032099;27;9614;-83
2022/10/23 03:42:25;;;;;;;;;1.75;1.75;;;;;;;;5048638;27;8861;-84
2022/10/23 03:44:53;;;;;;;;;3.00;2.00;;;;;;;;5041754;27;8828;-82
2022/10/23 03:47:20;;;;;;;;;3.75;3.75;;;;;;;;5044734;27;8844;-83
2022/10/23 03:49:49;;;;;;;;;2.00;2.00;;;;;;;;5063029;27;8959;-84
2022/10/23 03:52:17;;;;;;;;;2.00;2.00;;;;;;;;5074107;27;8837;-84
2022/10/23 03:54:44;;;;;;;;;2.00;2.00;;;;;;;;5053540;27;8849;-83
2022/10/23 03:57:12;;;;;;;;;3.25;2.00;;;;;;;;5047050;27;8834;-84
2022/10/23 03:59:40;;;;;;;;;2.50;2.50;;;;;;;;5064035;27;8935;-84
2022/10/23 04:02:08;;;;;;;;;2.50;2.50;;;;;;;;5061839;27;8853;-83
2022/10/23 04:04:36;;;;;;;;;2.75;2.25;;;;;;;;5057369;28;8869;-82
2022/10/23 04:07:05;;;;;;;;;2.00;2.00;;;;;;;;5052125;27;8858;-84
2022/10/23 04:09:33;;;;;;;;;3.00;3.00;;;;;;;;5061284;27;8813;-82
2022/10/23 04:12:01;;;;;;;;;2.25;2.25;;;;;;;;5081534;27;8853;-82
2022/10/23 04:14:29;;;;;;;;;3.50;3.50;;;;;;;;5063736;27;8927;-83
2022/10/23 04:16:57;;;;;;;;;2.50;2.50;;;;;;;;5087851;27;8846;-84
2022/10/23 04:19:25;;;;;;;;;3.75;2.00;;;;;;;;5059010;27;8978;-84
2022/10/23 04:21:53;;;;;;;;;3.00;3.00;;;;;;;;5079034;27;8812;-84
2022/10/23 04:24:23;;;;;;;;;1.50;1.50;;;;;;;;5062455;27;8898;-83
2022/10/23 04:26:50;;;;;;;;;2.50;2.50;;;;;;;;5061811;27;9007;-82
2022/10/23 04:29:21;;;;;;;;;3.00;3.00;;;;;;;;5096784;27;8872;-84
2022/10/23 04:31:50;;;;;;;;;3.00;3.00;;;;;;;;5074108;27;8831;-84
2022/10/23 04:34:17;;;;;;;;;2.25;2.25;;;;;;;;5064391;27;8871;-84
2022/10/23 04:36:45;;;;;;;;;4.50;3.50;;;;;;;;5052324;27;8848;-84
2022/10/23 04:39:13;;;;;;;;;4.50;4.50;;;;;;;;5068080;27;8863;-84
2022/10/23 04:41:42;;;;;;;;;3.00;3.00;;;;;;;;5049937;27;8848;-84
2022/10/23 04:44:10;;;;;;;;;3.25;3.25;;;;;;;;5058320;27;8915;-84
2022/10/23 04:46:37;;;;;;;;;2.50;2.50;;;;;;;;5053113;27;8838;-84
2022/10/23 04:49:04;;;;;;;;;4.00;4.00;;;;;;;;5054335;27;8966;-83
2022/10/23 04:51:32;;;;;;;;;1.75;1.75;;;;;;;;5137167;27;8940;-83
2022/10/23 04:53:59;;;;;;;;;3.25;3.25;;;;;;;;5053436;27;8997;-83
2022/10/23 04:56:27;;;;;;;;;2.25;2.25;;;;;;;;5051448;27;8878;-83
2022/10/23 04:58:56;;;;;;;;;3.75;2.50;;;;;;;;5060646;27;8850;-83
2022/10/23 05:01:24;;;;;;;;;4.75;4.50;;;;;;;;5049122;28;8977;-84
2022/10/23 05:03:52;;;;;;;;;4.50;3.25;;;;;;;;5068471;27;8906;-83
2022/10/23 05:06:20;;;;;;;;;3.25;3.25;;;;;;;;5045668;27;8837;-83
2022/10/23 05:08:47;;;;;;;;;1.75;1.75;;;;;;;;5052415;27;8848;-84
2022/10/23 05:11:15;;;;;;;;;1.50;1.50;;;;;;;;5038718;27;9053;-83
2022/10/23 05:13:42;;;;;;;;;6.00;4.00;;;;;;;;5042582;27;8990;-84
2022/10/23 05:16:13;;;;;;;;;3.00;3.00;;;;;;;;5041713;28;8912;-84
2022/10/23 05:18:46;;;;;;;;;4.25;4.25;;;;;;;;5046449;27;8862;-84
2022/10/23 05:21:16;;;;;;;;;6.00;2.75;;;;;;;;5042723;28;8886;-83
2022/10/23 05:23:45;;;;;;;;;3.00;3.00;;;;;;;;5065991;27;9014;-84
2022/10/23 05:26:13;;;;;;;;;6.00;4.25;;;;;;;;5062513;27;9042;-83
2022/10/23 05:28:40;;;;;;;;;3.00;3.00;;;;;;;;5052836;27;8861;-84
2022/10/23 05:31:08;;;;;;;;;3.00;3.00;;;;;;;;5072645;27;8966;-84
2022/10/23 05:33:37;;;;;;;;;4.25;4.25;;;;;;;;5127847;27;8843;-85
2022/10/23 05:36:06;;;;;;;;;7.00;5.50;;;;;;;;5044716;27;8932;-85
2022/10/23 05:38:35;;;;;;;;;3.25;3.25;;;;;;;;5116688;27;8818;-84
2022/10/23 05:41:03;;;;;;;;;3.25;3.00;;;;;;;;5043602;28;8907;-84
2022/10/23 05:43:32;;;;;;;;;5.00;5.00;;;;;;;;5060301;27;8961;-83
2022/10/23 05:46:00;;;;;;;;;3.00;3.00;;;;;;;;5038686;27;8812;-85
2022/10/23 05:48:27;;;;;;;;;3.75;3.75;;;;;;;;5063929;27;8855;-84
2022/10/23 05:50:56;;;;;;;;;4.75;3.50;;;;;;;;5049459;27;8945;-84
2022/10/23 05:53:24;;;;;;;;;4.00;4.00;;;;;;;;5051052;27;9006;-84
2022/10/23 05:55:52;;;;;;;;;5.75;4.25;;;;;;;;5097331;27;8848;-83
2022/10/23 05:58:19;;;;;;;;;3.75;3.75;;;;;;;;5050687;27;8854;-84
2022/10/23 06:00:47;;;;;;;;;5.25;5.25;;;;;;;;5041860;27;8918;-84
2022/10/23 06:03:14;;;;;;;;;7.25;3.25;;;;;;;;5046844;27;8856;-83
2022/10/23 06:05:49;;;;;;;;;3.50;3.50;;;;;;;;5057472;27;8820;-83
2022/10/23 06:08:18;;;;;;;;;7.75;7.75;;;;;;;;5076149;27;8847;-84
2022/10/23 06:10:46;;;;;;;;;3.00;3.00;;;;;;;;5070961;27;8836;-83
2022/10/23 06:13:14;;;;;;;;;4.75;4.75;;;;;;;;5076164;27;8897;-83
2022/10/23 06:15:42;;;;;;;;;3.50;3.50;;;;;;;;5067840;27;8986;-82
2022/10/23 06:18:09;;;;;;;;;4.00;4.00;;;;;;;;5056638;27;8842;-83
2022/10/23 06:20:37;;;;;;;;;3.75;3.75;;;;;;;;5025857;28;8845;-83
2022/10/23 06:23:05;;;;;;;;;5.50;3.50;;;;;;;;5033467;27;8857;-83
2022/10/23 06:25:34;;;;;;;;;3.75;3.50;;;;;;;;5061089;27;8992;-83
2022/10/23 06:28:01;;;;;;;;;5.50;4.75;;;;;;;;5030154;27;8825;-83
2022/10/23 06:30:29;;;;;;;;;4.75;4.50;;;;;;;;5028078;27;8873;-83
2022/10/23 06:32:57;;;;;;;;;3.00;3.00;;;;;;;;5041505;27;8843;-83
2022/10/23 06:35:24;;;;;;;;;5.50;4.00;;;;;;;;5043372;27;8874;-83
2022/10/23 06:37:51;;;;;;;;;6.50;5.00;;;;;;;;5038422;28;8844;-83
2022/10/23 06:40:19;;;;;;;;;4.50;4.50;;;;;;;;5056023;27;8854;-82
2022/10/23 06:42:48;;;;;;;;;4.00;4.00;;;;;;;;5034686;27;8884;-81
2022/10/23 06:45:16;;;;;;;;;4.00;4.00;;;;;;;;5048623;27;8873;-80
2022/10/23 06:47:43;;;;;;;;;4.00;4.00;;;;;;;;5061611;27;8951;-85
2022/10/23 06:50:10;;;;;;;;;2.75;2.75;;;;;;;;5030860;28;8967;-86
2022/10/23 06:52:38;;;;;;;;;4.25;4.25;;;;;;;;5033301;27;8841;-82
2022/10/23 06:55:07;;;;;;;;;2.00;2.00;;;;;;;;5032980;27;8833;-83
2022/10/23 06:57:34;;;;;;;;;3.50;3.50;;;;;;;;5029811;27;8893;-83
2022/10/23 07:00:03;;;;;;;;;6.00;4.00;;;;;;;;5031769;27;8872;-84
2022/10/23 07:02:31;;;;;;;;;6.00;4.25;;;;;;;;5039733;27;8806;-82
2022/10/23 07:04:58;;;;;;;;;4.50;4.50;;;;;;;;5063532;27;8846;-83
2022/10/23 07:07:26;;;;;;;;;4.00;4.00;;;;;;;;5058984;27;8831;-81
2022/10/23 07:09:53;;;;;;;;;4.25;4.25;;;;;;;;5060195;27;8841;-82
2022/10/23 07:12:21;;;;;;;;;3.00;3.00;;;;;;;;5088205;27;8918;-83
2022/10/23 07:14:50;;;;;;;;;3.50;3.50;;;;;;;;5116148;27;9933;-82
2022/10/23 07:17:19;;;;;;;;;6.00;4.00;;;;;;;;5122103;27;8848;-80
2022/10/23 07:19:47;;;;;;;;;5.50;4.00;;;;;;;;5108564;27;8842;-81
2022/10/23 07:22:15;;;;;;;;;5.25;4.00;;;;;;;;5113763;27;8921;-80
2022/10/23 07:24:42;;;;;;;;;3.00;3.00;;;;;;;;5108344;27;8849;-82
2022/10/23 07:27:10;;;;;;;;;3.25;3.25;;;;;;;;5121613;27;8961;-80
2022/10/23 07:29:38;;;;;;;;;5.75;4.75;;;;;;;;5127074;27;8826;-79
2022/10/23 07:32:06;;;;;;;;;3.75;3.75;;;;;;;;5096791;27;8870;-85
2022/10/23 07:34:35;;;;;;;;;3.25;3.25;;;;;;;;5138388;27;8834;-83
2022/10/23 07:37:03;;;;;;;;;4.25;4.00;;;;;;;;5130421;27;8837;-82
2022/10/23 07:39:33;;;;;;;;;4.00;4.00;;;;;;;;5130254;27;8821;-81
2022/10/23 07:42:00;;;;;;;;;5.75;5.75;;;;;;;;5127295;27;8826;-81
2022/10/23 07:44:28;;;;;;;;;5.25;3.75;;;;;;;;5092260;27;9005;-80
2022/10/23 07:46:55;;;;;;;;;4.50;4.50;;;;;;;;5124553;27;8853;-79
2022/10/23 07:49:23;;;;;;;;;4.50;4.25;;;;;;;;5123292;27;8841;-78
2022/10/23 07:51:52;;;;;;;;;6.25;6.25;;;;;;;;5093021;27;8855;-78
2022/10/23 07:54:20;;;;;;;;;5.50;4.25;;;;;;;;5120993;27;8858;-77
2022/10/23 07:56:47;;;;;;;;;4.00;4.00;;;;;;;;5120959;27;8865;-79
2022/10/23 07:59:14;;;;;;;;;2.75;2.75;;;;;;;;5130197;27;8852;-78
2022/10/23 08:01:44;;;;;;;;;4.50;4.25;;;;;;;;5123735;27;8872;-77
2022/10/23 08:04:11;;;;;;;;;5.00;5.00;;;;;;;;5104826;27;8832;-78
2022/10/23 08:06:39;;;;;;;;;4.50;4.25;;;;;;;;5126046;27;8821;-79
2022/10/23 08:09:08;;;;;;;;;3.00;3.00;;;;;;;;5110224;27;8824;-78
2022/10/23 08:11:36;;;;;;;;;5.75;5.75;;;;;;;;5108312;27;8868;-79
2022/10/23 08:14:05;;;;;;;;;5.75;5.75;;;;;;;;5050616;27;8840;-77
2022/10/23 08:16:33;;;;;;;;;2.00;2.00;;;;;;;;5057000;27;8934;-77
2022/10/23 08:19:01;;;;;;;;;3.75;3.75;;;;;;;;5048785;27;8843;-77
2022/10/23 08:21:29;;;;;;;;;5.00;5.00;;;;;;;;5057476;27;8864;-78
2022/10/23 08:23:58;;;;;;;;;6.75;4.25;;;;;;;;5065481;27;8827;-78
2022/10/23 08:26:28;;;;;;;;;3.00;3.00;;;;;;;;5066732;27;8836;-78
2022/10/23 08:28:56;;;;;;;;;5.75;4.00;;;;;;;;5050068;27;8849;-78
2022/10/23 08:31:24;;;;;;;;;4.00;4.00;;;;;;;;5052676;27;9687;-78
2022/10/23 08:33:52;;;;;;;;;5.25;3.50;;;;;;;;5075503;27;8863;-78
2022/10/23 08:36:22;;;;;;;;;3.50;3.50;;;;;;;;5067238;27;8847;-78
2022/10/23 08:38:51;;;;;;;;;5.00;4.00;;;;;;;;5047562;27;8874;-78
2022/10/23 08:41:26;;;;;;;;;4.20;4.20;;;;;;;;5042704;27;8878;-78
2022/10/23 08:44:06;;;;;;;;;4.80;4.00;;;;;;;;5032274;27;8938;-81
2022/10/23 08:46:37;;;;;;;;;4.60;4.60;;;;;;;;5045884;27;8836;-78
2022/10/23 08:49:17;;;;;;;;;3.20;3.00;;;;;;;;5035657;27;8836;-78
2022/10/23 08:51:48;;;;;;;;;5.40;5.40;;;;;;;;5030666;27;8867;-80
2022/10/23 08:54:18;;;;;;;;;4.00;4.00;;;;;;;;5046706;27;8831;-78
2022/10/23 08:56:51;;;;;;;;;3.80;3.80;;;;;;;;5026704;27;8894;-78
2022/10/23 08:59:25;;;;;;;;;4.60;4.60;;;;;;;;5064446;27;8894;-78
2022/10/23 09:01:58;;;;;;;;;2.40;2.00;;;;;;;;5040670;27;8824;-79
2022/10/23 09:04:26;;;;;;;;;3.00;3.00;;;;;;;;5028036;27;8855;-78
2022/10/23 09:07:00;;;;;;;;;4.00;4.00;;;;;;;;5048862;27;9212;-80
2022/10/23 09:09:45;;;;;;;;;5.00;5.00;;;;;;;;5034931;27;8881;-79
2022/10/23 09:12:16;;;;;;;;;5.00;5.00;;;;;;;;5042274;27;8855;-79
2022/10/23 09:15:10;;;;;;;;;4.00;4.00;;;;;;;;5044395;27;8893;-78
2022/10/23 09:17:39;;;;;;;;;3.00;3.00;;;;;;;;5050306;27;8858;-77
2022/10/23 09:20:19;;;;;;;;;4.00;4.00;;;;;;;;5065559;27;8863;-77
2022/10/23 09:22:47;;;;;;;;;6.40;6.40;;;;;;;;5043783;27;8964;-78
2022/10/23 09:25:19;;;;;;;;;4.00;4.00;;;;;;;;5050442;27;8832;-76
2022/10/23 09:27:51;;;;;;;;;6.40;4.60;;;;;;;;5041438;27;8848;-79
2022/10/23 09:30:27;;;;;;;;;5.60;5.60;;;;;;;;5042956;27;8864;-78
2022/10/23 09:32:54;;;;;;;;;5.00;5.00;;;;;;;;5070811;27;8986;-73
2022/10/23 09:35:23;;;;;;;;;5.75;4.25;;;;;;;;5051009;27;8838;-76
2022/10/23 09:37:52;;;;;;;;;3.00;3.00;;;;;;;;5042406;27;8849;-77
2022/10/23 09:40:25;;;;;;;;;2.00;2.00;;;;;;;;5041955;27;8856;-77
2022/10/23 09:42:57;;;;;;;;;3.00;1.60;;;;;;;;5053022;27;8860;-77
2022/10/23 09:45:30;;;;;;;;;3.00;2.80;;;;;;;;5064053;27;8828;-77
2022/10/23 09:48:06;;;;;;;;;2.80;2.80;;;;;;;;5047375;27;8867;-77
2022/10/23 09:50:34;;;;;;;;;3.00;3.00;;;;;;;;5044073;27;8889;-79
2022/10/23 09:53:03;;;;;;;;;5.00;5.00;;;;;;;;5052181;27;8859;-80
2022/10/23 09:55:30;;;;;;;;;3.80;3.80;;;;;;;;5027064;27;8836;-80
2022/10/23 09:58:00;;;;;;;;;3.00;3.00;;;;;;;;5062584;27;8844;-79
2022/10/23 10:00:28;;;;;;;;;3.20;3.20;;;;;;;;5127670;27;8843;-79
2022/10/23 10:02:59;;;;;;;;;3.00;3.00;;;;;;;;5022388;27;8882;-77
2022/10/23 10:05:28;;;;;;;;;2.80;2.80;;;;;;;;5052619;27;8963;-79
2022/10/23 10:07:58;;;;;;;;;3.40;3.40;;;;;;;;5049731;27;8862;-79
2022/10/23 10:10:29;;;;;;;;;3.00;3.00;;;;;;;;5040423;27;8834;-77
2022/10/23 10:13:01;;;;;;;;;4.00;4.00;;;;;;;;5035716;27;8831;-74
2022/10/23 10:15:33;;;;;;;;;5.20;4.00;;;;;;;;5046920;27;8856;-78
2022/10/23 10:18:09;;;;;;;;;4.40;4.40;;;;;;;;5037304;27;8932;-76
2022/10/23 10:20:55;;;;;;;;;4.00;4.00;;;;;;;;5040013;27;8866;-77
2022/10/23 10:23:29;;;;;;;;;1.80;1.80;;;;;;;;5036011;28;8863;-76
2022/10/23 10:26:03;;;;;;;;;2.60;2.60;;;;;;;;5064909;28;8831;-77
2022/10/23 10:28:50;;;;;;;;;2.60;2.60;;;;;;;;5038494;27;8863;-76
2022/10/23 10:31:23;;;;;;;;;3.00;2.60;;;;;;;;5048604;28;8888;-76
2022/10/23 10:33:59;;;;;;;;;3.80;3.80;;;;;;;;5048651;27;8891;-77
2022/10/23 10:36:41;;;;;;;;;3.00;3.00;;;;;;;;5108490;27;8886;-76
2022/10/23 10:39:15;;;;;;;;;2.00;2.00;;;;;;;;5041968;28;8883;-76
2022/10/23 10:41:50;;;;;;;;;3.20;3.20;;;;;;;;5042213;27;8869;-76
2022/10/23 10:47:24;;;;;;;;;2.00;2.00;;;;;;;;5161458;27;333220;-77
2022/10/23 10:50:07;;;;;;;;;3.80;2.00;;;;;;;;5149589;27;8923;-77
2022/10/23 10:52:42;;;;;;;;;2.00;1.80;;;;;;;;5154495;27;8819;-78
2022/10/23 10:55:18;;;;;;;;;4.40;4.40;;;;;;;;5172561;27;8833;-77
2022/10/23 10:57:48;;;;;;;;;1.00;1.00;;;;;;;;5171355;27;8850;-78
2022/10/23 11:00:18;;;;;;;;;2.00;2.00;;;;;;;;5171282;27;8843;-77
2022/10/23 11:02:50;;;;;;;;;2.80;2.80;;;;;;;;5151158;27;8834;-77
2022/10/23 11:05:25;;;;;;;;;3.00;3.00;;;;;;;;5167641;27;8826;-77
2022/10/23 11:07:59;;;;;;;;;3.20;2.60;;;;;;;;5170479;27;9595;-76
2022/10/23 11:10:28;;;;;;;;;3.80;3.80;;;;;;;;5169103;27;8845;-77
2022/10/23 11:12:57;;;;;;;;;2.00;2.00;;;;;;;;5173567;27;9733;-77
2022/10/23 11:15:28;;;;;;;;;2.00;2.00;;;;;;;;5172318;27;8893;-77
2022/10/23 11:18:00;;;;;;;;;2.00;2.00;;;;;;;;5165880;27;8860;-77
2022/10/23 11:20:51;;;;;;;;;4.00;4.00;;;;;;;;5170628;27;8810;-77
2022/10/23 11:23:57;;;;;;;;;3.00;3.00;;;;;;;;5172239;27;8861;-76
2022/10/23 11:26:34;;;;;;;;;2.60;2.60;;;;;;;;5139280;27;8890;-78
2022/10/23 11:29:30;;;;;;;;;3.20;3.20;;;;;;;;5135140;27;8870;-77
2022/10/23 11:32:10;;;;;;;;;2.40;2.40;;;;;;;;5166883;27;8850;-77
2022/10/23 11:34:50;;;;;;;;;2.80;2.80;;;;;;;;5134273;27;8871;-77
2022/10/23 11:37:19;;;;;;;;;4.00;2.60;;;;;;;;5165139;27;8841;-78
2022/10/23 11:40:03;;;;;;;;;2.80;2.80;;;;;;;;5165047;27;8850;-77
2022/10/23 11:42:33;;;;;;;;;3.00;3.00;;;;;;;;5152592;27;8853;-77
2022/10/23 11:45:01;;;;;;;;;3.40;3.40;;;;;;;;5158526;27;8822;-77
2022/10/23 11:47:34;;;;;;;;;5.00;3.00;;;;;;;;5163814;27;8828;-77
2022/10/23 11:50:23;;;;;;;;;2.40;2.40;;;;;;;;5168120;27;8802;-78
2022/10/23 11:53:00;;;;;;;;;6.00;2.20;;;;;;;;5131703;27;8848;-76
2022/10/23 11:55:28;;;;;;;;;1.20;1.20;;;;;;;;5169963;27;8821;-77
2022/10/23 11:58:18;;;;;;;;;2.00;2.00;;;;;;;;5144915;27;8834;-77
2022/10/23 12:00:53;;;;;;;;;3.20;3.20;;;;;;;;5139772;27;8855;-78
2022/10/23 12:03:24;;;;;;;;;3.00;3.00;;;;;;;;5135221;27;8882;-77
2022/10/23 12:06:00;;;;;;;;;2.40;2.40;;;;;;;;5162715;27;8976;-78
2022/10/23 12:08:30;;;;;;;;;3.40;3.40;;;;;;;;5156935;27;8844;-78
2022/10/23 12:10:58;;;;;;;;;1.20;1.20;;;;;;;;5161873;27;8833;-77
2022/10/23 12:13:46;;;;;;;;;2.00;2.00;;;;;;;;5158403;27;8817;-77
2022/10/23 12:16:13;;;;;;;;;3.00;3.00;;;;;;;;5121964;27;8820;-77
2022/10/23 12:18:49;;;;;;;;;3.20;2.00;;;;;;;;5153935;27;9548;-78
2022/10/23 12:21:21;;;;;;;;;2.60;2.60;;;;;;;;5153826;27;8845;-78
2022/10/23 12:24:07;;;;;;;;;2.20;2.20;;;;;;;;5159733;27;8833;-77
2022/10/23 12:26:49;;;;;;;;;3.00;3.00;;;;;;;;5151574;27;8837;-77
2022/10/23 12:29:28;;;;;;;;;2.60;2.60;;;;;;;;5157075;27;8832;-77
2022/10/23 12:32:01;;;;;;;;;2.60;2.60;;;;;;;;5134840;27;8851;-78
2022/10/23 12:34:38;;;;;;;;;1.40;1.40;;;;;;;;5156783;27;8826;-77
2022/10/23 12:37:29;;;;;;;;;1.60;1.60;;;;;;;;5136360;27;8860;-77
2022/10/23 12:39:58;;;;;;;;;1.60;1.60;;;;;;;;5121126;27;8841;-78
2022/10/23 12:42:28;;;;;;;;;2.00;2.00;;;;;;;;5135938;27;8851;-77
2022/10/23 12:44:59;;;;;;;;;3.20;2.00;;;;;;;;5155299;27;8839;-77
2022/10/23 12:47:27;;;;;;;;;3.00;3.00;;;;;;;;5117250;27;8963;-78
2022/10/23 12:49:54;;;;;;;;;4.00;2.80;;;;;;;;5117299;27;8856;-78
2022/10/23 12:52:24;;;;;;;;;2.20;2.20;;;;;;;;5112875;27;8865;-77
2022/10/23 12:54:52;;;;;;;;;4.00;2.40;;;;;;;;5100312;27;8970;-78
2022/10/23 12:57:24;;;;;;;;;2.80;2.80;;;;;;;;5097401;27;8787;-77
2022/10/23 12:59:55;;;;;;;;;1.40;1.40;;;;;;;;5139764;27;8931;-78
2022/10/23 13:02:24;;;;;;;;;3.00;3.00;;;;;;;;5131648;27;9619;-77
2022/10/23 13:04:53;;;;;;;;;2.00;2.00;;;;;;;;5135871;27;8989;-77
2022/10/23 13:07:25;;;;;;;;;3.00;3.00;;;;;;;;5133417;27;9617;-77
2022/10/23 13:09:53;;;;;;;;;2.00;2.00;;;;;;;;5134590;27;8831;-78
2022/10/23 13:12:23;;;;;;;;;3.60;1.80;;;;;;;;5135295;27;8836;-77
2022/10/23 13:15:01;;;;;;;;;4.60;3.40;;;;;;;;5117954;27;8847;-77
2022/10/23 13:17:38;;;;;;;;;2.80;2.80;;;;;;;;5141191;27;8882;-78
2022/10/23 13:20:11;;;;;;;;;2.00;2.00;;;;;;;;5101516;27;8848;-77
2022/10/23 13:22:41;;;;;;;;;2.00;2.00;;;;;;;;5134369;27;8826;-78
2022/10/23 13:25:22;;;;;;;;;2.40;2.40;;;;;;;;5136915;27;8852;-78
2022/10/23 13:27:50;;;;;;;;;3.20;1.80;;;;;;;;5135120;27;8820;-77
2022/10/23 13:30:31;;;;;;;;;2.80;2.80;;;;;;;;5135650;27;8832;-77
2022/10/23 13:32:59;;;;;;;;;3.00;3.00;;;;;;;;5137562;27;8854;-78
2022/10/23 13:35:27;;;;;;;;;2.00;2.00;;;;;;;;5116262;27;8982;-78
2022/10/23 13:37:56;;;;;;;;;4.60;2.80;;;;;;;;5138608;27;8845;-76
2022/10/23 13:40:25;;;;;;;;;3.20;3.20;;;;;;;;5131824;27;8841;-76
2022/10/23 13:42:54;;;;;;;;;2.80;2.80;;;;;;;;5138254;27;8907;-76
2022/10/23 13:45:26;;;;;;;;;2.80;2.80;;;;;;;;5133921;27;8810;-76
2022/10/23 13:47:53;;;;;;;;;3.20;3.00;;;;;;;;5136086;27;9282;-76
2022/10/23 13:50:21;;;;;;;;;1.60;1.60;;;;;;;;5134822;27;8846;-76
2022/10/23 13:52:49;;;;;;;;;2.80;2.80;;;;;;;;5155812;27;8881;-76
2022/10/23 13:55:22;;;;;;;;;1.80;1.80;;;;;;;;5150271;27;8894;-75
2022/10/23 13:57:50;;;;;;;;;3.80;1.80;;;;;;;;5159564;27;8841;-76
2022/10/23 14:00:18;;;;;;;;;2.80;2.80;;;;;;;;5110682;27;8919;-76
2022/10/23 14:02:46;;;;;;;;;2.00;2.00;;;;;;;;5157619;27;8997;-76
2022/10/23 14:05:13;;;;;;;;;3.20;3.20;;;;;;;;5149867;27;8825;-77
2022/10/23 14:07:40;;;;;;;;;2.40;1.80;;;;;;;;5132845;27;8964;-76
2022/10/23 14:10:08;;;;;;;;;2.20;2.20;;;;;;;;5153871;27;8962;-76
2022/10/23 14:12:41;;;;;;;;;2.80;2.20;;;;;;;;5157723;27;8843;-76
2022/10/23 14:15:09;;;;;;;;;3.60;2.40;;;;;;;;5156646;27;8830;-76
2022/10/23 14:17:37;;;;;;;;;3.60;2.60;;;;;;;;5134597;27;8950;-76
2022/10/23 14:20:06;;;;;;;;;2.80;2.80;;;;;;;;5158961;27;8835;-76
2022/10/23 14:22:33;;;;;;;;;1.60;1.60;;;;;;;;5153200;27;8848;-76
2022/10/23 14:25:01;;;;;;;;;1.60;1.60;;;;;;;;5150466;27;8824;-76
2022/10/23 14:27:28;;;;;;;;;2.60;2.00;;;;;;;;5149465;27;8863;-76
2022/10/23 14:29:58;;;;;;;;;3.20;1.60;;;;;;;;5146706;27;8859;-76
2022/10/23 14:32:25;;;;;;;;;3.00;3.00;;;;;;;;5153078;27;9585;-76
2022/10/23 14:34:54;;;;;;;;;1.80;1.80;;;;;;;;5134003;27;8839;-77
2022/10/23 14:37:22;;;;;;;;;0.80;0.80;;;;;;;;5156708;27;8819;-77
2022/10/23 14:39:49;;;;;;;;;3.80;1.80;;;;;;;;5153551;27;8848;-76
2022/10/23 14:42:17;;;;;;;;;2.40;1.80;;;;;;;;5133870;27;8853;-77
2022/10/23 14:44:45;;;;;;;;;1.20;1.20;;;;;;;;5157344;27;8884;-77
2022/10/23 14:47:14;;;;;;;;;1.60;1.60;;;;;;;;5136119;27;8844;-77
2022/10/23 14:49:42;;;;;;;;;0.80;0.80;;;;;;;;5151825;27;8844;-78
2022/10/23 14:52:09;;;;;;;;;2.40;1.40;;;;;;;;5152277;27;8883;-78
2022/10/23 14:54:36;;;;;;;;;1.20;1.20;;;;;;;;5125114;27;8884;-77
2022/10/23 14:57:04;;;;;;;;;1.00;1.00;;;;;;;;5139986;27;8875;-79
2022/10/23 14:59:32;;;;;;;;;3.60;2.00;;;;;;;;5156522;27;8859;-77
2022/10/23 15:02:00;;;;;;;;;1.40;1.40;;;;;;;;5135112;27;8830;-77
2022/10/23 15:04:29;;;;;;;;;2.00;2.00;;;;;;;;5152107;27;8842;-78
2022/10/23 15:06:56;;;;;;;;;1.80;1.80;;;;;;;;5150828;27;8829;-78
2022/10/23 15:09:24;;;;;;;;;3.00;3.00;;;;;;;;5152261;27;8806;-79
2022/10/23 15:11:51;;;;;;;;;1.00;1.00;;;;;;;;5135355;27;8947;-77
2022/10/23 15:14:19;;;;;;;;;0.20;0.00;;;;;;;;5153120;27;8841;-77
2022/10/23 15:16:47;;;;;;;;;2.00;2.00;;;;;;;;5149741;27;8829;-78
2022/10/23 15:19:15;;;;;;;;;1.80;1.80;;;;;;;;5122084;27;9552;-77